sensor_id;sensor_type;location;lat;lon;timestamp;P1;durP1;ratioP1;P2;durP2;ratioP2
7027;SDS011;3555;53.248;10.336;2022-08-01T00:01:45;6.07;;;5.53;;
7027;SDS011;3555;53.248;10.336;2022-08-01T00:04:12;6.72;;;6.13;;
7027;SDS011;3555;53.248;10.336;2022-08-01T00:06:39;6.75;;;6.10;;
7027;SDS011;3555;53.248;10.336;2022-08-01T00:09:06;7.10;;;6.40;;
7027;SDS011;3555;53.248;10.336;2022-08-01T00:11:32;9.43;;;6.88;;
7027;SDS011;3555;53.248;10.336;2022-08-01T00:13:59;9.18;;;6.07;;
7027;SDS011;3555;53.248;10.336;2022-08-01T00:16:26;7.50;;;6.35;;
7027;SDS011;3555;53.248;10.336;2022-08-01T00:18:55;7.35;;;6.65;;
7027;SDS011;3555;53.248;10.336;2022-08-01T00:21:22;7.57;;;6.63;;
7027;SDS011;3555;53.248;10.336;2022-08-01T00:23:48;12.25;;;8.00;;
7027;SDS011;3555;53.248;10.336;2022-08-01T00:26:15;8.07;;;6.65;;
7027;SDS011;3555;53.248;10.336;2022-08-01T00:28:42;6.53;;;5.90;;
7027;SDS011;3555;53.248;10.336;2022-08-01T00:31:09;7.72;;;6.43;;
7027;SDS011;3555;53.248;10.336;2022-08-01T00:33:36;6.95;;;6.22;;
7027;SDS011;3555;53.248;10.336;2022-08-01T00:36:04;7.30;;;6.60;;
7027;SDS011;3555;53.248;10.336;2022-08-01T00:38:31;7.00;;;5.70;;
7027;SDS011;3555;53.248;10.336;2022-08-01T00:40:58;7.28;;;6.57;;
7027;SDS011;3555;53.248;10.336;2022-08-01T00:43:25;6.93;;;6.25;;
7027;SDS011;3555;53.248;10.336;2022-08-01T00:45:51;7.70;;;6.90;;
7027;SDS011;3555;53.248;10.336;2022-08-01T00:48:18;8.27;;;7.57;;
7027;SDS011;3555;53.248;10.336;2022-08-01T00:50:45;7.65;;;6.75;;
7027;SDS011;3555;53.248;10.336;2022-08-01T00:53:14;9.65;;;6.55;;
7027;SDS011;3555;53.248;10.336;2022-08-01T00:55:40;6.38;;;5.78;;
7027;SDS011;3555;53.248;10.336;2022-08-01T00:58:08;7.25;;;6.45;;
7027;SDS011;3555;53.248;10.336;2022-08-01T01:00:35;7.38;;;6.72;;
7027;SDS011;3555;53.248;10.336;2022-08-01T01:03:02;7.13;;;6.15;;
7027;SDS011;3555;53.248;10.336;2022-08-01T01:05:29;6.35;;;5.75;;
7027;SDS011;3555;53.248;10.336;2022-08-01T01:08:07;6.57;;;5.97;;
7027;SDS011;3555;53.248;10.336;2022-08-01T01:10:40;7.20;;;6.50;;
7027;SDS011;3555;53.248;10.336;2022-08-01T01:13:15;6.40;;;5.60;;
7027;SDS011;3555;53.248;10.336;2022-08-01T01:15:50;6.82;;;6.18;;
7027;SDS011;3555;53.248;10.336;2022-08-01T01:18:22;6.53;;;5.82;;
7027;SDS011;3555;53.248;10.336;2022-08-01T01:20:51;5.05;;;4.55;;
7027;SDS011;3555;53.248;10.336;2022-08-01T01:23:34;7.13;;;6.43;;
7027;SDS011;3555;53.248;10.336;2022-08-01T01:26:17;6.63;;;6.03;;
7027;SDS011;3555;53.248;10.336;2022-08-01T01:28:58;6.35;;;5.75;;
7027;SDS011;3555;53.248;10.336;2022-08-01T01:31:27;6.78;;;6.00;;
7027;SDS011;3555;53.248;10.336;2022-08-01T01:33:57;5.82;;;5.22;;
7027;SDS011;3555;53.248;10.336;2022-08-01T01:36:25;6.63;;;6.03;;
7027;SDS011;3555;53.248;10.336;2022-08-01T01:38:54;5.78;;;5.30;;
7027;SDS011;3555;53.248;10.336;2022-08-01T01:41:21;6.85;;;6.25;;
7027;SDS011;3555;53.248;10.336;2022-08-01T01:43:49;6.95;;;6.20;;
7027;SDS011;3555;53.248;10.336;2022-08-01T01:46:20;5.95;;;5.35;;
7027;SDS011;3555;53.248;10.336;2022-08-01T01:48:51;7.35;;;5.15;;
7027;SDS011;3555;53.248;10.336;2022-08-01T01:51:21;6.88;;;6.20;;
7027;SDS011;3555;53.248;10.336;2022-08-01T01:53:50;6.25;;;5.30;;
7027;SDS011;3555;53.248;10.336;2022-08-01T01:56:18;6.90;;;6.25;;
7027;SDS011;3555;53.248;10.336;2022-08-01T01:58:47;6.60;;;6.00;;
7027;SDS011;3555;53.248;10.336;2022-08-01T02:01:16;6.70;;;5.97;;
7027;SDS011;3555;53.248;10.336;2022-08-01T02:03:45;7.30;;;6.55;;
7027;SDS011;3555;53.248;10.336;2022-08-01T02:06:14;7.05;;;6.35;;
7027;SDS011;3555;53.248;10.336;2022-08-01T02:08:42;6.75;;;6.10;;
7027;SDS011;3555;53.248;10.336;2022-08-01T02:11:09;7.43;;;6.72;;
7027;SDS011;3555;53.248;10.336;2022-08-01T02:13:46;6.55;;;5.95;;
7027;SDS011;3555;53.248;10.336;2022-08-01T02:16:19;5.82;;;5.22;;
7027;SDS011;3555;53.248;10.336;2022-08-01T02:18:49;7.32;;;6.63;;
7027;SDS011;3555;53.248;10.336;2022-08-01T02:21:17;7.40;;;6.70;;
7027;SDS011;3555;53.248;10.336;2022-08-01T02:23:51;7.70;;;7.00;;
7027;SDS011;3555;53.248;10.336;2022-08-01T02:26:19;7.40;;;6.72;;
7027;SDS011;3555;53.248;10.336;2022-08-01T02:28:49;6.40;;;5.80;;
7027;SDS011;3555;53.248;10.336;2022-08-01T02:31:21;8.25;;;6.93;;
7027;SDS011;3555;53.248;10.336;2022-08-01T02:33:53;7.78;;;7.07;;
7027;SDS011;3555;53.248;10.336;2022-08-01T02:36:23;7.60;;;6.80;;
7027;SDS011;3555;53.248;10.336;2022-08-01T02:38:54;8.02;;;6.18;;
7027;SDS011;3555;53.248;10.336;2022-08-01T02:41:23;7.90;;;7.13;;
7027;SDS011;3555;53.248;10.336;2022-08-01T02:43:53;8.52;;;7.28;;
7027;SDS011;3555;53.248;10.336;2022-08-01T02:46:27;7.78;;;7.07;;
7027;SDS011;3555;53.248;10.336;2022-08-01T02:49:00;7.43;;;6.78;;
7027;SDS011;3555;53.248;10.336;2022-08-01T02:51:28;8.50;;;7.05;;
7027;SDS011;3555;53.248;10.336;2022-08-01T02:53:57;8.00;;;6.53;;
7027;SDS011;3555;53.248;10.336;2022-08-01T02:56:27;10.10;;;7.03;;
7027;SDS011;3555;53.248;10.336;2022-08-01T02:59:01;6.70;;;6.07;;
7027;SDS011;3555;53.248;10.336;2022-08-01T03:01:31;6.28;;;5.63;;
7027;SDS011;3555;53.248;10.336;2022-08-01T03:04:00;8.68;;;6.60;;
7027;SDS011;3555;53.248;10.336;2022-08-01T03:06:27;7.00;;;5.97;;
7027;SDS011;3555;53.248;10.336;2022-08-01T03:08:55;6.10;;;5.50;;
7027;SDS011;3555;53.248;10.336;2022-08-01T03:11:23;6.70;;;5.57;;
7027;SDS011;3555;53.248;10.336;2022-08-01T03:13:52;7.15;;;5.07;;
7027;SDS011;3555;53.248;10.336;2022-08-01T03:16:21;6.45;;;5.00;;
7027;SDS011;3555;53.248;10.336;2022-08-01T03:18:53;5.78;;;4.53;;
7027;SDS011;3555;53.248;10.336;2022-08-01T03:21:21;5.05;;;4.53;;
7027;SDS011;3555;53.248;10.336;2022-08-01T03:23:50;4.80;;;4.40;;
7027;SDS011;3555;53.248;10.336;2022-08-01T03:26:22;5.53;;;4.18;;
7027;SDS011;3555;53.248;10.336;2022-08-01T03:28:51;5.85;;;4.38;;
7027;SDS011;3555;53.248;10.336;2022-08-01T03:31:21;4.95;;;3.40;;
7027;SDS011;3555;53.248;10.336;2022-08-01T03:33:50;5.15;;;4.10;;
7027;SDS011;3555;53.248;10.336;2022-08-01T03:36:18;6.05;;;4.00;;
7027;SDS011;3555;53.248;10.336;2022-08-01T03:38:50;5.93;;;4.15;;
7027;SDS011;3555;53.248;10.336;2022-08-01T03:41:19;5.72;;;3.88;;
7027;SDS011;3555;53.248;10.336;2022-08-01T03:43:48;3.83;;;3.35;;
7027;SDS011;3555;53.248;10.336;2022-08-01T03:46:22;4.47;;;4.00;;
7027;SDS011;3555;53.248;10.336;2022-08-01T03:48:55;3.30;;;2.90;;
7027;SDS011;3555;53.248;10.336;2022-08-01T03:51:27;4.55;;;3.33;;
7027;SDS011;3555;53.248;10.336;2022-08-01T03:53:56;5.53;;;3.45;;
7027;SDS011;3555;53.248;10.336;2022-08-01T03:56:26;5.25;;;3.78;;
7027;SDS011;3555;53.248;10.336;2022-08-01T03:58:56;3.78;;;3.40;;
7027;SDS011;3555;53.248;10.336;2022-08-01T04:01:24;5.35;;;3.53;;
7027;SDS011;3555;53.248;10.336;2022-08-01T04:03:52;5.03;;;3.25;;
7027;SDS011;3555;53.248;10.336;2022-08-01T04:06:19;3.80;;;3.28;;
7027;SDS011;3555;53.248;10.336;2022-08-01T04:08:47;3.58;;;3.13;;
7027;SDS011;3555;53.248;10.336;2022-08-01T04:11:21;4.15;;;3.30;;
7027;SDS011;3555;53.248;10.336;2022-08-01T04:13:49;4.80;;;2.95;;
7027;SDS011;3555;53.248;10.336;2022-08-01T04:16:17;4.03;;;3.33;;
7027;SDS011;3555;53.248;10.336;2022-08-01T04:18:44;4.35;;;3.10;;
7027;SDS011;3555;53.248;10.336;2022-08-01T04:21:11;6.50;;;3.70;;
7027;SDS011;3555;53.248;10.336;2022-08-01T04:23:38;7.00;;;3.30;;
7027;SDS011;3555;53.248;10.336;2022-08-01T04:26:08;3.28;;;2.97;;
7027;SDS011;3555;53.248;10.336;2022-08-01T04:28:36;4.82;;;3.40;;
7027;SDS011;3555;53.248;10.336;2022-08-01T04:31:05;3.40;;;3.10;;
7027;SDS011;3555;53.248;10.336;2022-08-01T04:33:36;3.40;;;2.63;;
7027;SDS011;3555;53.248;10.336;2022-08-01T04:36:04;3.50;;;3.20;;
7027;SDS011;3555;53.248;10.336;2022-08-01T04:38:34;4.55;;;3.00;;
7027;SDS011;3555;53.248;10.336;2022-08-01T04:41:02;4.20;;;2.97;;
7027;SDS011;3555;53.248;10.336;2022-08-01T04:43:32;3.03;;;2.67;;
7027;SDS011;3555;53.248;10.336;2022-08-01T04:46:00;3.85;;;2.88;;
7027;SDS011;3555;53.248;10.336;2022-08-01T04:48:29;3.78;;;3.17;;
7027;SDS011;3555;53.248;10.336;2022-08-01T04:50:58;2.70;;;2.20;;
7027;SDS011;3555;53.248;10.336;2022-08-01T04:53:25;4.28;;;3.00;;
7027;SDS011;3555;53.248;10.336;2022-08-01T04:55:52;2.85;;;2.40;;
7027;SDS011;3555;53.248;10.336;2022-08-01T04:58:20;5.05;;;2.78;;
7027;SDS011;3555;53.248;10.336;2022-08-01T05:00:48;2.53;;;1.80;;
7027;SDS011;3555;53.248;10.336;2022-08-01T05:03:15;2.67;;;2.10;;
7027;SDS011;3555;53.248;10.336;2022-08-01T05:05:42;2.65;;;2.45;;
7027;SDS011;3555;53.248;10.336;2022-08-01T05:08:09;5.50;;;2.10;;
7027;SDS011;3555;53.248;10.336;2022-08-01T05:10:36;4.50;;;2.10;;
7027;SDS011;3555;53.248;10.336;2022-08-01T05:13:03;2.60;;;1.52;;
7027;SDS011;3555;53.248;10.336;2022-08-01T05:15:31;3.13;;;1.70;;
7027;SDS011;3555;53.248;10.336;2022-08-01T05:17:59;3.05;;;1.90;;
7027;SDS011;3555;53.248;10.336;2022-08-01T05:20:26;1.73;;;1.40;;
7027;SDS011;3555;53.248;10.336;2022-08-01T05:22:53;3.58;;;1.75;;
7027;SDS011;3555;53.248;10.336;2022-08-01T05:25:19;3.40;;;1.85;;
7027;SDS011;3555;53.248;10.336;2022-08-01T05:27:46;2.65;;;1.60;;
7027;SDS011;3555;53.248;10.336;2022-08-01T05:30:13;2.20;;;1.70;;
7027;SDS011;3555;53.248;10.336;2022-08-01T05:32:40;4.43;;;1.80;;
7027;SDS011;3555;53.248;10.336;2022-08-01T05:35:09;2.17;;;1.80;;
7027;SDS011;3555;53.248;10.336;2022-08-01T05:37:36;2.03;;;1.52;;
7027;SDS011;3555;53.248;10.336;2022-08-01T05:40:03;3.00;;;1.70;;
7027;SDS011;3555;53.248;10.336;2022-08-01T05:42:31;3.47;;;1.70;;
7027;SDS011;3555;53.248;10.336;2022-08-01T05:44:58;3.10;;;1.80;;
7027;SDS011;3555;53.248;10.336;2022-08-01T05:47:24;2.22;;;1.40;;
7027;SDS011;3555;53.248;10.336;2022-08-01T05:49:51;1.70;;;1.50;;
7027;SDS011;3555;53.248;10.336;2022-08-01T05:52:19;3.90;;;1.38;;
7027;SDS011;3555;53.248;10.336;2022-08-01T05:54:46;1.80;;;1.38;;
7027;SDS011;3555;53.248;10.336;2022-08-01T05:57:13;1.58;;;1.40;;
7027;SDS011;3555;53.248;10.336;2022-08-01T05:59:40;3.80;;;1.45;;
7027;SDS011;3555;53.248;10.336;2022-08-01T06:02:06;2.55;;;1.38;;
7027;SDS011;3555;53.248;10.336;2022-08-01T06:04:33;2.05;;;1.17;;
7027;SDS011;3555;53.248;10.336;2022-08-01T06:07:00;1.70;;;1.33;;
7027;SDS011;3555;53.248;10.336;2022-08-01T06:09:28;1.60;;;1.30;;
7027;SDS011;3555;53.248;10.336;2022-08-01T06:11:55;2.25;;;1.50;;
7027;SDS011;3555;53.248;10.336;2022-08-01T06:14:22;1.52;;;1.20;;
7027;SDS011;3555;53.248;10.336;2022-08-01T06:16:49;1.50;;;1.10;;
7027;SDS011;3555;53.248;10.336;2022-08-01T06:19:16;2.13;;;0.90;;
7027;SDS011;3555;53.248;10.336;2022-08-01T06:21:42;1.30;;;0.88;;
7027;SDS011;3555;53.248;10.336;2022-08-01T06:24:09;1.45;;;1.00;;
7027;SDS011;3555;53.248;10.336;2022-08-01T06:26:37;1.50;;;0.90;;
7027;SDS011;3555;53.248;10.336;2022-08-01T06:29:04;1.00;;;0.82;;
7027;SDS011;3555;53.248;10.336;2022-08-01T06:31:31;1.17;;;0.70;;
7027;SDS011;3555;53.248;10.336;2022-08-01T06:33:58;1.75;;;1.20;;
7027;SDS011;3555;53.248;10.336;2022-08-01T06:36:24;1.75;;;1.50;;
7027;SDS011;3555;53.248;10.336;2022-08-01T06:38:51;1.98;;;1.35;;
7027;SDS011;3555;53.248;10.336;2022-08-01T06:41:18;1.58;;;1.48;;
7027;SDS011;3555;53.248;10.336;2022-08-01T06:43:46;2.20;;;1.80;;
7027;SDS011;3555;53.248;10.336;2022-08-01T06:46:13;1.58;;;1.30;;
7027;SDS011;3555;53.248;10.336;2022-08-01T06:48:40;2.58;;;2.35;;
7027;SDS011;3555;53.248;10.336;2022-08-01T06:51:09;2.42;;;2.08;;
7027;SDS011;3555;53.248;10.336;2022-08-01T06:53:38;2.10;;;1.80;;
7027;SDS011;3555;53.248;10.336;2022-08-01T06:56:06;2.20;;;2.00;;
7027;SDS011;3555;53.248;10.336;2022-08-01T06:58:33;2.83;;;2.50;;
7027;SDS011;3555;53.248;10.336;2022-08-01T07:01:02;2.20;;;2.00;;
7027;SDS011;3555;53.248;10.336;2022-08-01T07:03:30;2.40;;;2.20;;
7027;SDS011;3555;53.248;10.336;2022-08-01T07:05:57;2.10;;;1.90;;
7027;SDS011;3555;53.248;10.336;2022-08-01T07:08:24;2.97;;;1.73;;
7027;SDS011;3555;53.248;10.336;2022-08-01T07:10:51;2.92;;;2.30;;
7027;SDS011;3555;53.248;10.336;2022-08-01T07:13:18;3.70;;;2.35;;
7027;SDS011;3555;53.248;10.336;2022-08-01T07:15:49;2.70;;;2.17;;
7027;SDS011;3555;53.248;10.336;2022-08-01T07:18:18;4.70;;;2.47;;
7027;SDS011;3555;53.248;10.336;2022-08-01T07:20:45;3.15;;;1.85;;
7027;SDS011;3555;53.248;10.336;2022-08-01T07:23:12;3.45;;;2.42;;
7027;SDS011;3555;53.248;10.336;2022-08-01T07:25:39;2.10;;;1.90;;
7027;SDS011;3555;53.248;10.336;2022-08-01T07:28:06;4.28;;;2.20;;
7027;SDS011;3555;53.248;10.336;2022-08-01T07:30:33;4.68;;;2.70;;
7027;SDS011;3555;53.248;10.336;2022-08-01T07:33:00;3.53;;;2.03;;
7027;SDS011;3555;53.248;10.336;2022-08-01T07:35:28;3.17;;;2.00;;
7027;SDS011;3555;53.248;10.336;2022-08-01T07:37:55;3.08;;;2.72;;
7027;SDS011;3555;53.248;10.336;2022-08-01T07:40:22;3.17;;;2.10;;
7027;SDS011;3555;53.248;10.336;2022-08-01T07:42:49;3.35;;;2.00;;
7027;SDS011;3555;53.248;10.336;2022-08-01T07:45:16;2.75;;;2.13;;
7027;SDS011;3555;53.248;10.336;2022-08-01T07:47:43;2.63;;;2.10;;
7027;SDS011;3555;53.248;10.336;2022-08-01T07:50:10;2.65;;;2.10;;
7027;SDS011;3555;53.248;10.336;2022-08-01T07:52:39;3.85;;;2.40;;
7027;SDS011;3555;53.248;10.336;2022-08-01T07:55:07;3.20;;;2.47;;
7027;SDS011;3555;53.248;10.336;2022-08-01T07:57:34;4.75;;;2.35;;
7027;SDS011;3555;53.248;10.336;2022-08-01T08:00:02;3.20;;;1.92;;
7027;SDS011;3555;53.248;10.336;2022-08-01T08:02:30;3.38;;;2.30;;
7027;SDS011;3555;53.248;10.336;2022-08-01T08:04:57;2.75;;;2.00;;
7027;SDS011;3555;53.248;10.336;2022-08-01T08:07:24;3.80;;;1.92;;
7027;SDS011;3555;53.248;10.336;2022-08-01T08:09:52;2.47;;;1.98;;
7027;SDS011;3555;53.248;10.336;2022-08-01T08:12:19;4.28;;;1.95;;
7027;SDS011;3555;53.248;10.336;2022-08-01T08:14:46;5.03;;;1.98;;
7027;SDS011;3555;53.248;10.336;2022-08-01T08:17:12;3.85;;;1.77;;
7027;SDS011;3555;53.248;10.336;2022-08-01T08:19:39;4.80;;;1.45;;
7027;SDS011;3555;53.248;10.336;2022-08-01T08:22:06;2.15;;;1.48;;
7027;SDS011;3555;53.248;10.336;2022-08-01T08:24:33;5.43;;;1.92;;
7027;SDS011;3555;53.248;10.336;2022-08-01T08:27:01;4.68;;;1.73;;
7027;SDS011;3555;53.248;10.336;2022-08-01T08:29:29;3.60;;;1.75;;
7027;SDS011;3555;53.248;10.336;2022-08-01T08:31:57;3.85;;;1.70;;
7027;SDS011;3555;53.248;10.336;2022-08-01T08:34:25;4.30;;;1.77;;
7027;SDS011;3555;53.248;10.336;2022-08-01T08:36:53;5.45;;;1.95;;
7027;SDS011;3555;53.248;10.336;2022-08-01T08:39:21;5.63;;;2.20;;
7027;SDS011;3555;53.248;10.336;2022-08-01T08:41:48;6.90;;;2.05;;
7027;SDS011;3555;53.248;10.336;2022-08-01T08:44:17;4.13;;;2.00;;
7027;SDS011;3555;53.248;10.336;2022-08-01T08:46:45;6.32;;;2.78;;
7027;SDS011;3555;53.248;10.336;2022-08-01T08:49:15;5.97;;;2.20;;
7027;SDS011;3555;53.248;10.336;2022-08-01T08:51:43;7.38;;;2.33;;
7027;SDS011;3555;53.248;10.336;2022-08-01T08:54:13;8.70;;;2.45;;
7027;SDS011;3555;53.248;10.336;2022-08-01T08:56:42;5.90;;;2.10;;
7027;SDS011;3555;53.248;10.336;2022-08-01T08:59:10;7.68;;;2.20;;
7027;SDS011;3555;53.248;10.336;2022-08-01T09:01:40;6.60;;;2.58;;
7027;SDS011;3555;53.248;10.336;2022-08-01T09:04:07;5.55;;;2.05;;
7027;SDS011;3555;53.248;10.336;2022-08-01T09:06:35;6.75;;;2.40;;
7027;SDS011;3555;53.248;10.336;2022-08-01T09:09:02;5.43;;;2.58;;
7027;SDS011;3555;53.248;10.336;2022-08-01T09:11:30;4.80;;;2.00;;
7027;SDS011;3555;53.248;10.336;2022-08-01T09:14:04;5.07;;;2.13;;
7027;SDS011;3555;53.248;10.336;2022-08-01T09:16:32;10.35;;;2.50;;
7027;SDS011;3555;53.248;10.336;2022-08-01T09:19:09;8.50;;;2.63;;
7027;SDS011;3555;53.248;10.336;2022-08-01T09:21:37;7.80;;;2.60;;
7027;SDS011;3555;53.248;10.336;2022-08-01T09:24:13;7.38;;;2.67;;
7027;SDS011;3555;53.248;10.336;2022-08-01T09:26:40;7.88;;;2.58;;
7027;SDS011;3555;53.248;10.336;2022-08-01T09:29:08;7.50;;;2.75;;
7027;SDS011;3555;53.248;10.336;2022-08-01T09:31:44;6.65;;;2.60;;
7027;SDS011;3555;53.248;10.336;2022-08-01T09:34:13;8.40;;;2.53;;
7027;SDS011;3555;53.248;10.336;2022-08-01T09:36:44;9.15;;;2.25;;
7027;SDS011;3555;53.248;10.336;2022-08-01T09:39:16;8.20;;;2.67;;
7027;SDS011;3555;53.248;10.336;2022-08-01T09:41:45;7.47;;;2.22;;
7027;SDS011;3555;53.248;10.336;2022-08-01T09:44:12;5.60;;;1.70;;
7027;SDS011;3555;53.248;10.336;2022-08-01T09:46:48;5.43;;;1.67;;
7027;SDS011;3555;53.248;10.336;2022-08-01T09:49:26;5.05;;;1.73;;
7027;SDS011;3555;53.248;10.336;2022-08-01T09:51:54;5.07;;;1.60;;
7027;SDS011;3555;53.248;10.336;2022-08-01T09:54:27;5.60;;;2.10;;
7027;SDS011;3555;53.248;10.336;2022-08-01T09:56:57;5.18;;;1.58;;
7027;SDS011;3555;53.248;10.336;2022-08-01T09:59:34;4.15;;;1.70;;
7027;SDS011;3555;53.248;10.336;2022-08-01T10:02:02;6.03;;;1.50;;
7027;SDS011;3555;53.248;10.336;2022-08-01T10:04:31;3.67;;;1.40;;
7027;SDS011;3555;53.248;10.336;2022-08-01T10:07:03;6.22;;;2.40;;
7027;SDS011;3555;53.248;10.336;2022-08-01T10:09:32;3.13;;;1.40;;
7027;SDS011;3555;53.248;10.336;2022-08-01T10:12:00;3.65;;;1.48;;
7027;SDS011;3555;53.248;10.336;2022-08-01T10:14:28;5.15;;;1.20;;
7027;SDS011;3555;53.248;10.336;2022-08-01T10:16:56;2.65;;;1.35;;
7027;SDS011;3555;53.248;10.336;2022-08-01T10:19:25;3.60;;;1.08;;
7027;SDS011;3555;53.248;10.336;2022-08-01T10:21:55;5.63;;;1.58;;
7027;SDS011;3555;53.248;10.336;2022-08-01T10:24:24;6.55;;;1.80;;
7027;SDS011;3555;53.248;10.336;2022-08-01T10:26:54;4.65;;;1.67;;
7027;SDS011;3555;53.248;10.336;2022-08-01T10:29:28;7.53;;;1.85;;
7027;SDS011;3555;53.248;10.336;2022-08-01T10:31:59;5.60;;;1.90;;
7027;SDS011;3555;53.248;10.336;2022-08-01T10:34:26;10.63;;;2.58;;
7027;SDS011;3555;53.248;10.336;2022-08-01T10:36:56;9.15;;;2.42;;
7027;SDS011;3555;53.248;10.336;2022-08-01T10:39:23;9.07;;;1.90;;
7027;SDS011;3555;53.248;10.336;2022-08-01T10:41:53;9.95;;;1.90;;
7027;SDS011;3555;53.248;10.336;2022-08-01T10:44:21;6.05;;;1.85;;
7027;SDS011;3555;53.248;10.336;2022-08-01T10:46:50;8.13;;;2.15;;
7027;SDS011;3555;53.248;10.336;2022-08-01T10:49:22;5.82;;;2.05;;
7027;SDS011;3555;53.248;10.336;2022-08-01T10:51:54;7.53;;;2.53;;
7027;SDS011;3555;53.248;10.336;2022-08-01T10:54:23;5.82;;;1.83;;
7027;SDS011;3555;53.248;10.336;2022-08-01T10:56:51;6.00;;;1.83;;
7027;SDS011;3555;53.248;10.336;2022-08-01T10:59:20;5.80;;;1.90;;
7027;SDS011;3555;53.248;10.336;2022-08-01T11:01:55;6.35;;;2.20;;
7027;SDS011;3555;53.248;10.336;2022-08-01T11:04:31;7.18;;;1.83;;
7027;SDS011;3555;53.248;10.336;2022-08-01T11:07:03;6.00;;;1.90;;
7027;SDS011;3555;53.248;10.336;2022-08-01T11:09:38;5.20;;;1.92;;
7027;SDS011;3555;53.248;10.336;2022-08-01T11:12:07;5.70;;;1.63;;
7027;SDS011;3555;53.248;10.336;2022-08-01T11:17:36;5.88;;;1.80;;
7027;SDS011;3555;53.248;10.336;2022-08-01T11:20:04;6.13;;;2.30;;
7027;SDS011;3555;53.248;10.336;2022-08-01T11:28:42;3.75;;;1.45;;
7027;SDS011;3555;53.248;10.336;2022-08-01T11:31:26;3.55;;;1.52;;
7027;SDS011;3555;53.248;10.336;2022-08-01T11:33:54;4.05;;;1.58;;
7027;SDS011;3555;53.248;10.336;2022-08-01T11:36:21;10.60;;;1.88;;
7027;SDS011;3555;53.248;10.336;2022-08-01T11:38:49;5.93;;;1.85;;
7027;SDS011;3555;53.248;10.336;2022-08-01T11:41:37;5.72;;;1.73;;
7027;SDS011;3555;53.248;10.336;2022-08-01T11:44:04;3.33;;;1.40;;
7027;SDS011;3555;53.248;10.336;2022-08-01T11:46:48;6.00;;;1.63;;
7027;SDS011;3555;53.248;10.336;2022-08-01T11:49:27;5.43;;;1.52;;
7027;SDS011;3555;53.248;10.336;2022-08-01T11:51:58;7.80;;;1.60;;
7027;SDS011;3555;53.248;10.336;2022-08-01T11:54:27;5.95;;;1.40;;
7027;SDS011;3555;53.248;10.336;2022-08-01T11:56:56;5.22;;;1.45;;
7027;SDS011;3555;53.248;10.336;2022-08-01T11:59:24;4.88;;;1.40;;
7027;SDS011;3555;53.248;10.336;2022-08-01T12:01:51;5.10;;;1.45;;
7027;SDS011;3555;53.248;10.336;2022-08-01T12:04:18;4.75;;;1.55;;
7027;SDS011;3555;53.248;10.336;2022-08-01T12:06:46;3.80;;;1.33;;
7027;SDS011;3555;53.248;10.336;2022-08-01T12:09:16;6.00;;;1.65;;
7027;SDS011;3555;53.248;10.336;2022-08-01T12:11:44;3.78;;;1.10;;
7027;SDS011;3555;53.248;10.336;2022-08-01T12:14:16;4.63;;;1.30;;
7027;SDS011;3555;53.248;10.336;2022-08-01T12:16:48;4.10;;;1.52;;
7027;SDS011;3555;53.248;10.336;2022-08-01T12:19:18;4.65;;;1.50;;
7027;SDS011;3555;53.248;10.336;2022-08-01T12:24:32;7.60;;;1.55;;
7027;SDS011;3555;53.248;10.336;2022-08-01T12:26:59;4.35;;;1.15;;
7027;SDS011;3555;53.248;10.336;2022-08-01T12:29:34;6.07;;;1.75;;
7027;SDS011;3555;53.248;10.336;2022-08-01T12:32:03;4.53;;;1.35;;
7027;SDS011;3555;53.248;10.336;2022-08-01T12:34:30;5.40;;;1.40;;
7027;SDS011;3555;53.248;10.336;2022-08-01T12:37:00;5.45;;;1.40;;
7027;SDS011;3555;53.248;10.336;2022-08-01T12:39:33;5.20;;;1.33;;
7027;SDS011;3555;53.248;10.336;2022-08-01T12:42:01;6.13;;;1.73;;
7027;SDS011;3555;53.248;10.336;2022-08-01T12:44:31;5.85;;;1.30;;
7027;SDS011;3555;53.248;10.336;2022-08-01T12:46:59;2.17;;;1.02;;
7027;SDS011;3555;53.248;10.336;2022-08-01T12:49:27;4.47;;;1.35;;
7027;SDS011;3555;53.248;10.336;2022-08-01T12:51:54;3.92;;;1.30;;
7027;SDS011;3555;53.248;10.336;2022-08-01T12:54:22;4.57;;;1.52;;
7027;SDS011;3555;53.248;10.336;2022-08-01T12:56:50;4.03;;;1.48;;
7027;SDS011;3555;53.248;10.336;2022-08-01T12:59:21;7.05;;;1.52;;
7027;SDS011;3555;53.248;10.336;2022-08-01T13:01:50;3.67;;;1.40;;
7027;SDS011;3555;53.248;10.336;2022-08-01T13:04:19;5.70;;;1.80;;
7027;SDS011;3555;53.248;10.336;2022-08-01T13:06:46;3.63;;;1.30;;
7027;SDS011;3555;53.248;10.336;2022-08-01T13:09:13;4.78;;;1.48;;
7027;SDS011;3555;53.248;10.336;2022-08-01T13:11:40;3.70;;;1.20;;
7027;SDS011;3555;53.248;10.336;2022-08-01T13:14:08;7.10;;;1.50;;
7027;SDS011;3555;53.248;10.336;2022-08-01T13:16:44;5.40;;;1.38;;
7027;SDS011;3555;53.248;10.336;2022-08-01T13:19:13;4.07;;;1.13;;
7027;SDS011;3555;53.248;10.336;2022-08-01T13:21:42;4.18;;;1.40;;
7027;SDS011;3555;53.248;10.336;2022-08-01T13:24:24;4.95;;;1.23;;
7027;SDS011;3555;53.248;10.336;2022-08-01T13:26:52;7.28;;;1.65;;
7027;SDS011;3555;53.248;10.336;2022-08-01T13:29:28;3.83;;;1.35;;
7027;SDS011;3555;53.248;10.336;2022-08-01T13:31:56;5.13;;;1.42;;
7027;SDS011;3555;53.248;10.336;2022-08-01T13:34:29;3.42;;;1.45;;
7027;SDS011;3555;53.248;10.336;2022-08-01T13:36:57;4.28;;;1.40;;
7027;SDS011;3555;53.248;10.336;2022-08-01T13:39:26;3.35;;;1.33;;
7027;SDS011;3555;53.248;10.336;2022-08-01T13:42:13;4.88;;;1.35;;
7027;SDS011;3555;53.248;10.336;2022-08-01T13:44:41;4.43;;;1.48;;
7027;SDS011;3555;53.248;10.336;2022-08-01T13:47:10;3.72;;;1.60;;
7027;SDS011;3555;53.248;10.336;2022-08-01T13:49:37;5.40;;;1.45;;
7027;SDS011;3555;53.248;10.336;2022-08-01T13:52:05;5.22;;;1.52;;
7027;SDS011;3555;53.248;10.336;2022-08-01T13:54:32;5.25;;;1.50;;
7027;SDS011;3555;53.248;10.336;2022-08-01T13:56:59;5.05;;;1.50;;
7027;SDS011;3555;53.248;10.336;2022-08-01T13:59:26;3.88;;;1.30;;
7027;SDS011;3555;53.248;10.336;2022-08-01T14:01:53;3.85;;;1.23;;
7027;SDS011;3555;53.248;10.336;2022-08-01T14:04:20;4.90;;;1.27;;
7027;SDS011;3555;53.248;10.336;2022-08-01T14:06:47;5.32;;;1.58;;
7027;SDS011;3555;53.248;10.336;2022-08-01T14:09:15;3.83;;;1.10;;
7027;SDS011;3555;53.248;10.336;2022-08-01T14:11:44;4.47;;;1.35;;
7027;SDS011;3555;53.248;10.336;2022-08-01T14:14:11;4.60;;;1.30;;
7027;SDS011;3555;53.248;10.336;2022-08-01T14:16:38;3.40;;;1.20;;
7027;SDS011;3555;53.248;10.336;2022-08-01T14:19:05;4.53;;;1.48;;
7027;SDS011;3555;53.248;10.336;2022-08-01T14:21:32;4.47;;;1.25;;
7027;SDS011;3555;53.248;10.336;2022-08-01T14:23:58;4.75;;;1.23;;
7027;SDS011;3555;53.248;10.336;2022-08-01T14:26:27;4.88;;;1.55;;
7027;SDS011;3555;53.248;10.336;2022-08-01T14:28:53;3.35;;;1.30;;
7027;SDS011;3555;53.248;10.336;2022-08-01T14:31:20;7.03;;;1.40;;
7027;SDS011;3555;53.248;10.336;2022-08-01T14:33:47;4.13;;;1.27;;
7027;SDS011;3555;53.248;10.336;2022-08-01T14:36:14;9.75;;;1.60;;
7027;SDS011;3555;53.248;10.336;2022-08-01T14:38:41;4.70;;;1.35;;
7027;SDS011;3555;53.248;10.336;2022-08-01T14:41:07;5.63;;;1.30;;
7027;SDS011;3555;53.248;10.336;2022-08-01T14:43:36;4.38;;;1.35;;
7027;SDS011;3555;53.248;10.336;2022-08-01T14:46:02;7.95;;;1.50;;
7027;SDS011;3555;53.248;10.336;2022-08-01T14:48:30;8.57;;;1.50;;
7027;SDS011;3555;53.248;10.336;2022-08-01T14:50:57;5.03;;;1.42;;
7027;SDS011;3555;53.248;10.336;2022-08-01T14:53:27;3.58;;;1.30;;
7027;SDS011;3555;53.248;10.336;2022-08-01T14:55:54;4.97;;;1.40;;
7027;SDS011;3555;53.248;10.336;2022-08-01T14:58:21;5.28;;;1.60;;
7027;SDS011;3555;53.248;10.336;2022-08-01T15:00:49;4.13;;;1.25;;
7027;SDS011;3555;53.248;10.336;2022-08-01T15:03:19;5.28;;;1.38;;
7027;SDS011;3555;53.248;10.336;2022-08-01T15:05:46;6.25;;;1.67;;
7027;SDS011;3555;53.248;10.336;2022-08-01T15:08:12;4.75;;;1.40;;
7027;SDS011;3555;53.248;10.336;2022-08-01T15:10:39;5.20;;;1.40;;
7027;SDS011;3555;53.248;10.336;2022-08-01T15:13:06;5.95;;;1.52;;
7027;SDS011;3555;53.248;10.336;2022-08-01T15:15:33;7.60;;;1.42;;
7027;SDS011;3555;53.248;10.336;2022-08-01T15:18:01;6.40;;;1.65;;
7027;SDS011;3555;53.248;10.336;2022-08-01T15:20:28;3.70;;;1.33;;
7027;SDS011;3555;53.248;10.336;2022-08-01T15:22:55;5.63;;;1.48;;